Time;durP1;ratioP1;P1;durP2;ratioP2;P2;SDS_P1;SDS_P2;PMS_P1;PMS_P2;Temp;Humidity;BMP_temperature;BMP_pressure;BME280_temperature;BME280_humidity;BME280_pressure;Samples;Min_cycle;Max_cycle;Signal;HPM_P1;HPM_P2
2021/01/25 00:01:32;;;;;;;8.45;4.88;;;;;;;;;;5055367;28;20029;-86
2021/01/25 00:04:17;;;;;;;8.80;4.72;;;;;;;;;;5057536;28;20024;-85
2021/01/25 00:07:02;;;;;;;11.98;5.03;;;;;;;;;;5051602;28;20024;-86
2021/01/25 00:09:48;;;;;;;10.63;5.90;;;;;;;;;;5056805;28;20024;-86
2021/01/25 00:12:33;;;;;;;12.50;5.40;;;;;;;;;;5054883;28;20024;-85
2021/01/25 00:15:18;;;;;;;9.68;4.95;;;;;;;;;;5056943;28;20103;-85
2021/01/25 00:18:03;;;;;;;10.68;5.65;;;;;;;;;;5067795;28;20089;-85
2021/01/25 00:20:48;;;;;;;9.07;4.65;;;;;;;;;;5053497;28;20064;-85
2021/01/25 00:23:34;;;;;;;11.65;4.90;;;;;;;;;;5056038;28;20144;-84
2021/01/25 00:26:19;;;;;;;9.15;5.05;;;;;;;;;;5055776;28;20024;-85
2021/01/25 00:29:05;;;;;;;9.43;5.18;;;;;;;;;;5054590;28;20032;-84
2021/01/25 00:31:50;;;;;;;11.23;5.72;;;;;;;;;;5071855;28;20047;-86
2021/01/25 00:34:37;;;;;;;11.70;6.03;;;;;;;;;;5055783;28;20081;-86
2021/01/25 00:37:22;;;;;;;12.00;5.45;;;;;;;;;;5052958;28;20580;-84
2021/01/25 00:40:08;;;;;;;9.52;4.85;;;;;;;;;;5053985;28;20025;-86
2021/01/25 00:42:53;;;;;;;10.25;5.45;;;;;;;;;;5052908;28;20024;-85
2021/01/25 00:45:38;;;;;;;6.97;4.30;;;;;;;;;;5056482;28;20126;-87
2021/01/25 00:48:23;;;;;;;10.43;4.40;;;;;;;;;;5056136;28;20225;-86
2021/01/25 00:51:09;;;;;;;7.70;4.30;;;;;;;;;;5043864;28;20123;-85
2021/01/25 00:53:54;;;;;;;9.25;5.10;;;;;;;;;;5055672;28;20074;-85
2021/01/25 00:56:39;;;;;;;10.20;4.65;;;;;;;;;;5078565;28;20589;-84
2021/01/25 00:59:24;;;;;;;10.15;5.07;;;;;;;;;;5058520;28;20506;-85
2021/01/25 01:02:11;;;;;;;9.73;5.00;;;;;;;;;;5076726;28;20027;-85
2021/01/25 01:04:56;;;;;;;8.85;4.25;;;;;;;;;;5058176;28;20035;-85
2021/01/25 01:07:41;;;;;;;9.45;4.75;;;;;;;;;;5050999;28;20061;-85
2021/01/25 01:10:26;;;;;;;8.77;4.55;;;;;;;;;;5055714;28;20377;-85
2021/01/25 01:13:11;;;;;;;10.38;4.93;;;;;;;;;;5053476;28;20028;-86
2021/01/25 01:15:57;;;;;;;9.00;4.55;;;;;;;;;;5056940;28;20167;-87
2021/01/25 01:18:43;;;;;;;9.02;4.22;;;;;;;;;;5051460;28;20078;-86
2021/01/25 01:21:28;;;;;;;8.20;4.00;;;;;;;;;;5073337;28;20021;-86
2021/01/25 01:24:13;;;;;;;10.18;5.10;;;;;;;;;;5064460;28;20453;-85
2021/01/25 01:26:58;;;;;;;8.80;4.55;;;;;;;;;;5054652;28;20495;-85
2021/01/25 01:29:44;;;;;;;8.65;4.18;;;;;;;;;;5051924;28;20026;-85
2021/01/25 01:32:29;;;;;;;8.90;4.97;;;;;;;;;;5039732;28;20059;-86
2021/01/25 01:35:14;;;;;;;9.02;4.78;;;;;;;;;;5039219;28;20016;-85
2021/01/25 01:37:59;;;;;;;7.55;4.32;;;;;;;;;;5064567;28;20040;-84
2021/01/25 01:40:45;;;;;;;9.93;5.18;;;;;;;;;;5050483;28;20040;-84
2021/01/25 01:43:30;;;;;;;7.10;4.00;;;;;;;;;;5052493;28;20025;-85
2021/01/25 01:46:15;;;;;;;10.43;4.32;;;;;;;;;;5051668;28;20029;-85
2021/01/25 01:49:01;;;;;;;8.40;4.07;;;;;;;;;;5057141;28;20032;-85
2021/01/25 01:51:46;;;;;;;8.60;4.30;;;;;;;;;;5052614;28;20036;-85
2021/01/25 01:54:32;;;;;;;7.75;4.35;;;;;;;;;;5051546;28;20060;-86
2021/01/25 01:57:17;;;;;;;13.63;5.57;;;;;;;;;;5056896;28;20022;-85
2021/01/25 02:00:04;;;;;;;7.25;3.85;;;;;;;;;;5054180;28;20653;-88
2021/01/25 02:02:49;;;;;;;7.05;4.05;;;;;;;;;;5055426;28;20054;-85
2021/01/25 02:05:34;;;;;;;10.82;4.40;;;;;;;;;;5056993;28;20025;-85
2021/01/25 02:08:21;;;;;;;7.57;4.32;;;;;;;;;;5042215;28;20033;-85
2021/01/25 02:11:07;;;;;;;8.18;4.38;;;;;;;;;;5050162;28;20030;-84
2021/01/25 02:13:52;;;;;;;7.28;4.30;;;;;;;;;;5051710;28;20490;-85
2021/01/25 02:16:39;;;;;;;10.57;5.40;;;;;;;;;;5049332;28;20081;-85
2021/01/25 02:19:33;;;;;;;9.55;4.55;;;;;;;;;;5049688;28;20025;-85
2021/01/25 02:22:18;;;;;;;11.68;4.60;;;;;;;;;;5049293;28;20111;-84
2021/01/25 02:25:04;;;;;;;8.65;3.95;;;;;;;;;;5056054;28;20436;-84
2021/01/25 02:27:50;;;;;;;12.05;4.82;;;;;;;;;;5049305;28;20089;-84
2021/01/25 02:30:35;;;;;;;10.05;5.15;;;;;;;;;;5054240;28;20377;-85
2021/01/25 02:33:21;;;;;;;8.48;4.30;;;;;;;;;;5053370;28;20480;-85
2021/01/25 02:36:07;;;;;;;9.63;4.60;;;;;;;;;;5050765;28;20083;-86
2021/01/25 02:38:53;;;;;;;9.35;4.45;;;;;;;;;;5052939;28;20083;-87
2021/01/25 02:41:39;;;;;;;10.07;4.57;;;;;;;;;;5052489;28;20101;-86
2021/01/25 02:44:25;;;;;;;10.32;4.80;;;;;;;;;;5048707;28;20024;-85
2021/01/25 02:47:11;;;;;;;8.70;5.20;;;;;;;;;;5047694;28;20082;-86
2021/01/25 02:49:56;;;;;;;8.57;4.35;;;;;;;;;;5053572;28;20472;-85
2021/01/25 02:52:41;;;;;;;9.88;4.88;;;;;;;;;;5051352;28;20021;-85
2021/01/25 02:55:27;;;;;;;8.60;4.68;;;;;;;;;;5052895;28;20024;-85
2021/01/25 02:58:13;;;;;;;8.10;4.50;;;;;;;;;;5051546;28;20029;-85
2021/01/25 03:00:58;;;;;;;7.28;4.60;;;;;;;;;;5056480;28;20052;-86
2021/01/25 03:03:45;;;;;;;10.73;6.10;;;;;;;;;;5052333;28;20203;-85
2021/01/25 03:06:30;;;;;;;8.20;4.32;;;;;;;;;;5051504;28;20028;-85
2021/01/25 03:09:15;;;;;;;9.70;4.93;;;;;;;;;;5049853;28;20024;-85
2021/01/25 03:12:01;;;;;;;9.02;4.50;;;;;;;;;;5052779;28;20368;-83
2021/01/25 03:14:46;;;;;;;9.38;4.65;;;;;;;;;;5052793;28;20111;-85
2021/01/25 03:17:32;;;;;;;11.93;5.57;;;;;;;;;;5058239;28;20024;-84
2021/01/25 03:20:17;;;;;;;11.35;5.38;;;;;;;;;;5044567;28;20026;-84
2021/01/25 03:23:03;;;;;;;12.98;6.28;;;;;;;;;;5064822;28;20055;-83
2021/01/25 03:25:51;;;;;;;10.77;5.72;;;;;;;;;;5058504;28;20043;-82
2021/01/25 03:28:36;;;;;;;11.48;5.70;;;;;;;;;;5058389;28;20071;-83
2021/01/25 03:31:21;;;;;;;15.60;5.68;;;;;;;;;;5056868;28;20012;-84
2021/01/25 03:34:06;;;;;;;13.40;5.72;;;;;;;;;;5052513;28;20032;-83
2021/01/25 03:36:52;;;;;;;11.27;6.22;;;;;;;;;;5056656;28;20074;-84
2021/01/25 03:39:37;;;;;;;11.00;6.50;;;;;;;;;;5054049;28;20032;-83
2021/01/25 03:42:23;;;;;;;17.40;6.57;;;;;;;;;;5056345;28;20040;-82
2021/01/25 03:45:08;;;;;;;14.70;7.28;;;;;;;;;;5058502;28;20561;-84
2021/01/25 03:47:53;;;;;;;10.90;6.43;;;;;;;;;;5063759;28;20062;-86
2021/01/25 03:50:38;;;;;;;12.48;6.35;;;;;;;;;;5061900;28;20058;-85
2021/01/25 03:53:24;;;;;;;11.80;6.03;;;;;;;;;;5059000;28;20021;-83
2021/01/25 03:56:09;;;;;;;17.08;6.82;;;;;;;;;;5052786;28;20028;-83
2021/01/25 03:58:54;;;;;;;13.57;7.60;;;;;;;;;;5056251;28;20024;-86
2021/01/25 04:01:39;;;;;;;11.88;6.97;;;;;;;;;;5056306;28;20397;-86
2021/01/25 04:04:25;;;;;;;9.68;5.75;;;;;;;;;;5055162;28;20419;-86
2021/01/25 04:07:10;;;;;;;12.52;5.80;;;;;;;;;;5053248;28;20021;-85
2021/01/25 04:09:56;;;;;;;10.32;5.53;;;;;;;;;;5054089;28;20032;-86
2021/01/25 04:12:41;;;;;;;11.13;6.30;;;;;;;;;;5056819;28;20032;-86
2021/01/25 04:15:26;;;;;;;11.85;5.68;;;;;;;;;;5039093;28;20115;-86
2021/01/25 04:18:12;;;;;;;9.20;5.50;;;;;;;;;;5059309;28;20025;-84
2021/01/25 04:20:57;;;;;;;12.13;6.10;;;;;;;;;;5053712;28;20113;-85
2021/01/25 04:23:42;;;;;;;8.57;5.30;;;;;;;;;;5058321;28;20035;-85
2021/01/25 04:26:27;;;;;;;10.77;5.78;;;;;;;;;;5061673;28;20033;-85
2021/01/25 04:29:13;;;;;;;12.13;5.65;;;;;;;;;;5054343;28;20471;-85
2021/01/25 04:31:58;;;;;;;9.15;5.72;;;;;;;;;;5063583;28;20016;-84
2021/01/25 04:34:43;;;;;;;11.13;5.45;;;;;;;;;;5061026;28;20035;-85
2021/01/25 04:37:28;;;;;;;11.95;6.00;;;;;;;;;;5051690;28;20031;-83
2021/01/25 04:40:14;;;;;;;11.40;5.38;;;;;;;;;;5055042;28;20068;-84
2021/01/25 04:43:00;;;;;;;8.73;5.32;;;;;;;;;;5052455;28;20024;-82
2021/01/25 04:45:46;;;;;;;9.80;5.85;;;;;;;;;;5052666;28;20009;-83
2021/01/25 04:48:32;;;;;;;10.60;5.65;;;;;;;;;;5055454;28;20024;-83
2021/01/25 04:51:18;;;;;;;8.68;4.80;;;;;;;;;;5056756;28;20377;-83
2021/01/25 04:54:06;;;;;;;8.52;5.35;;;;;;;;;;5055734;28;20017;-84
2021/01/25 04:56:52;;;;;;;13.93;5.72;;;;;;;;;;5047983;28;20040;-83
2021/01/25 04:59:37;;;;;;;8.90;4.63;;;;;;;;;;5054956;28;20032;-85
2021/01/25 05:02:22;;;;;;;12.10;5.38;;;;;;;;;;5054501;28;20055;-84
2021/01/25 05:05:09;;;;;;;9.20;4.90;;;;;;;;;;5058772;28;20017;-85
2021/01/25 05:07:54;;;;;;;7.40;4.63;;;;;;;;;;5052337;28;20674;-85
2021/01/25 05:10:41;;;;;;;7.70;5.40;;;;;;;;;;5053687;28;20515;-84
2021/01/25 05:13:27;;;;;;;9.80;5.63;;;;;;;;;;5049399;28;20032;-84
2021/01/25 05:16:20;;;;;;;8.90;5.65;;;;;;;;;;5055189;28;20360;-84
2021/01/25 05:19:05;;;;;;;10.65;4.03;;;;;;;;;;5052591;28;20033;-85
2021/01/25 05:21:51;;;;;;;9.20;5.03;;;;;;;;;;5052209;28;20024;-85
2021/01/25 05:24:43;;;;;;;7.55;4.25;;;;;;;;;;5052128;28;20394;-85
2021/01/25 05:27:29;;;;;;;9.10;4.60;;;;;;;;;;5053792;28;20024;-87
2021/01/25 05:30:15;;;;;;;11.40;5.47;;;;;;;;;;5055346;28;20490;-85
2021/01/25 05:33:00;;;;;;;8.30;4.80;;;;;;;;;;5052756;28;20445;-84
2021/01/25 05:35:45;;;;;;;9.90;5.35;;;;;;;;;;5053983;28;20059;-85
2021/01/25 05:38:32;;;;;;;9.18;4.85;;;;;;;;;;5051433;28;20093;-84
2021/01/25 05:41:18;;;;;;;9.57;5.90;;;;;;;;;;5051364;28;20093;-85
2021/01/25 05:44:12;;;;;;;8.52;4.78;;;;;;;;;;5050405;28;20028;-84
2021/01/25 05:47:05;;;;;;;7.63;4.47;;;;;;;;;;5075030;28;20000;-84
2021/01/25 05:49:50;;;;;;;7.88;4.60;;;;;;;;;;5044684;28;20025;-83
2021/01/25 05:52:41;;;;;;;8.82;5.07;;;;;;;;;;5073828;28;20040;-83
2021/01/25 05:55:26;;;;;;;7.97;4.60;;;;;;;;;;5051558;28;20521;-83
2021/01/25 05:58:12;;;;;;;10.82;5.07;;;;;;;;;;5056781;28;20078;-84
2021/01/25 06:00:58;;;;;;;10.65;5.30;;;;;;;;;;5048943;28;20070;-84
2021/01/25 06:03:43;;;;;;;10.65;5.38;;;;;;;;;;5054372;28;20020;-84
2021/01/25 06:06:35;;;;;;;7.78;5.05;;;;;;;;;;5058432;28;20549;-84
2021/01/25 06:09:28;;;;;;;9.38;4.97;;;;;;;;;;5047612;28;20017;-84
2021/01/25 06:12:26;;;;;;;7.65;4.72;;;;;;;;;;5054257;28;20024;-84
2021/01/25 06:15:19;;;;;;;7.60;4.97;;;;;;;;;;5058017;28;20027;-84
2021/01/25 06:18:04;;;;;;;10.38;5.47;;;;;;;;;;5052789;28;20095;-86
2021/01/25 06:20:52;;;;;;;9.77;5.63;;;;;;;;;;5051214;28;20048;-84
2021/01/25 06:23:37;;;;;;;8.95;5.50;;;;;;;;;;5053034;28;20028;-86
2021/01/25 06:26:23;;;;;;;9.85;4.45;;;;;;;;;;5048926;28;20116;-85
2021/01/25 06:29:09;;;;;;;7.15;4.30;;;;;;;;;;5055959;28;20254;-87
2021/01/25 06:31:55;;;;;;;8.55;4.78;;;;;;;;;;5066937;28;20608;-86
2021/01/25 06:34:53;;;;;;;7.18;4.38;;;;;;;;;;5057680;28;20107;-86
2021/01/25 06:38:04;;;;;;;8.40;4.25;;;;;;;;;;5054322;28;20036;-86
2021/01/25 06:40:49;;;;;;;10.23;5.05;;;;;;;;;;5048887;28;20033;-84
2021/01/25 06:43:45;;;;;;;13.38;6.00;;;;;;;;;;5049747;28;20059;-85
2021/01/25 06:46:32;;;;;;;17.55;7.28;;;;;;;;;;5050190;28;20029;-87
2021/01/25 06:49:20;;;;;;;16.48;6.72;;;;;;;;;;5035453;28;20027;-89
2021/01/25 06:52:14;;;;;;;15.85;6.07;;;;;;;;;;5051144;28;20119;-88
2021/01/25 06:55:06;;;;;;;14.68;6.30;;;;;;;;;;5053672;28;20027;-86
2021/01/25 06:57:51;;;;;;;15.05;6.18;;;;;;;;;;5051897;28;20082;-87
2021/01/25 07:00:38;;;;;;;11.25;5.95;;;;;;;;;;5052903;28;20793;-83
2021/01/25 07:03:23;;;;;;;12.88;5.85;;;;;;;;;;5049862;28;20029;-84
2021/01/25 07:06:13;;;;;;;15.98;6.53;;;;;;;;;;5051509;28;20353;-84
2021/01/25 07:09:01;;;;;;;16.65;6.60;;;;;;;;;;5052313;28;20032;-84
2021/01/25 07:11:47;;;;;;;23.50;13.38;;;;;;;;;;5054837;28;20504;-83
2021/01/25 07:14:36;;;;;;;19.50;10.77;;;;;;;;;;5054067;28;20091;-86
2021/01/25 07:17:41;;;;;;;9.20;5.68;;;;;;;;;;5049618;28;20031;-84
2021/01/25 07:20:37;;;;;;;11.23;5.50;;;;;;;;;;5052371;28;20386;-84
2021/01/25 07:23:23;;;;;;;11.02;6.18;;;;;;;;;;5065678;28;20416;-83
2021/01/25 07:26:13;;;;;;;10.10;5.22;;;;;;;;;;5054787;28;20078;-85
2021/01/25 07:28:58;;;;;;;11.05;5.47;;;;;;;;;;5052639;28;20043;-84
2021/01/25 07:31:44;;;;;;;13.98;5.65;;;;;;;;;;5054000;28;20028;-84
2021/01/25 07:34:37;;;;;;;11.55;5.63;;;;;;;;;;5052099;28;20112;-88
2021/01/25 07:37:23;;;;;;;12.60;5.80;;;;;;;;;;5054652;28;20028;-83
2021/01/25 07:40:21;;;;;;;13.63;5.40;;;;;;;;;;5054020;28;20025;-87
2021/01/25 07:43:06;;;;;;;12.98;5.38;;;;;;;;;;5052257;28;20020;-84
2021/01/25 07:46:09;;;;;;;11.98;5.82;;;;;;;;;;5053020;28;20048;-84
2021/01/25 07:48:57;;;;;;;13.35;6.18;;;;;;;;;;5051442;28;20020;-86
2021/01/25 07:52:18;;;;;;;12.35;5.47;;;;;;;;;;5037384;28;20040;-86
2021/01/25 07:55:18;;;;;;;9.93;5.25;;;;;;;;;;4958298;28;20392;-86
2021/01/25 07:58:07;;;;;;;26.38;12.93;;;;;;;;;;5041211;28;20025;-86
2021/01/25 08:01:18;;;;;;;43.17;21.77;;;;;;;;;;5055081;28;20376;-86
2021/01/25 08:04:07;;;;;;;17.17;8.23;;;;;;;;;;5054800;28;20024;-87
2021/01/25 08:06:53;;;;;;;15.80;5.82;;;;;;;;;;5057432;28;20059;-85
2021/01/25 08:09:48;;;;;;;12.90;6.38;;;;;;;;;;5068246;28;20024;-86
2021/01/25 08:12:39;;;;;;;15.40;5.32;;;;;;;;;;5031309;28;20046;-87
2021/01/25 08:15:32;;;;;;;11.73;6.13;;;;;;;;;;5006054;28;20021;-83
2021/01/25 08:18:18;;;;;;;13.27;6.43;;;;;;;;;;5065384;28;20074;-83
2021/01/25 08:21:11;;;;;;;13.80;6.13;;;;;;;;;;5054380;28;20044;-88
2021/01/25 08:24:04;;;;;;;14.98;5.85;;;;;;;;;;5060175;28;20032;-87
2021/01/25 08:26:54;;;;;;;15.70;5.65;;;;;;;;;;5058164;28;20458;-86
2021/01/25 08:29:42;;;;;;;;;;;;;;;;;;5057161;28;20478;-88
2021/01/25 08:32:28;;;;;;;12.15;6.00;;;;;;;;;;5071416;28;19995;-87
2021/01/25 08:35:14;;;;;;;12.48;5.53;;;;;;;;;;5057577;28;20039;-87
2021/01/25 08:38:21;;;;;;;;;;;;;;;;;;;;;
2021/01/25 08:41:21;;;;;;;13.10;6.35;;;;;;;;;;5038111;28;20368;-89
2021/01/25 08:44:35;;;;;;;11.32;6.20;;;;;;;;;;5032494;28;20033;-86
2021/01/25 08:47:29;;;;;;;12.40;7.35;;;;;;;;;;5026508;28;20029;-83
2021/01/25 08:50:40;;;;;;;38.83;20.65;;;;;;;;;;5032218;28;20044;-84
2021/01/25 08:53:30;;;;;;;14.45;7.05;;;;;;;;;;5030817;28;20021;-85
2021/01/25 08:56:18;;;;;;;12.68;6.30;;;;;;;;;;5029321;28;20025;-85
2021/01/25 08:59:08;;;;;;;12.93;5.57;;;;;;;;;;5032296;28;20029;-86
2021/01/25 09:02:33;;;;;;;;;;;;;;;;;;;;;
2021/01/25 09:05:21;;;;;;;15.13;7.20;;;;;;;;;;4980911;28;20030;-83
2021/01/25 09:08:06;;;;;;;14.50;6.28;;;;;;;;;;5027099;28;20494;-87
2021/01/25 09:10:51;;;;;;;15.20;6.85;;;;;;;;;;5029758;28;20345;-84
2021/01/25 09:13:36;;;;;;;15.32;6.97;;;;;;;;;;5014872;28;20403;-86
2021/01/25 09:16:22;;;;;;;15.82;7.22;;;;;;;;;;5030157;28;20151;-82
2021/01/25 09:19:07;;;;;;;16.77;7.00;;;;;;;;;;5027453;28;20419;-84
2021/01/25 09:21:52;;;;;;;15.20;6.80;;;;;;;;;;5029773;28;20029;-86
2021/01/25 09:24:39;;;;;;;18.08;7.13;;;;;;;;;;5031976;28;20415;-87
2021/01/25 09:27:24;;;;;;;12.38;6.68;;;;;;;;;;5026207;28;20464;-83
2021/01/25 09:30:10;;;;;;;13.07;6.22;;;;;;;;;;5028728;28;20029;-87
2021/01/25 09:32:56;;;;;;;12.38;6.95;;;;;;;;;;5028057;28;20029;-84
2021/01/25 09:35:41;;;;;;;15.18;6.93;;;;;;;;;;5027263;28;20034;-86
2021/01/25 09:38:27;;;;;;;23.27;8.23;;;;;;;;;;5029500;28;20448;-87
2021/01/25 09:41:12;;;;;;;13.63;7.13;;;;;;;;;;5041576;28;20056;-87
2021/01/25 09:43:58;;;;;;;24.40;14.45;;;;;;;;;;5051149;28;20387;-87
2021/01/25 09:46:43;;;;;;;23.27;8.43;;;;;;;;;;5047767;28;20116;-86
2021/01/25 09:49:28;;;;;;;16.13;8.13;;;;;;;;;;5049418;28;20115;-87
2021/01/25 09:52:13;;;;;;;13.70;8.00;;;;;;;;;;5050742;28;20017;-87
2021/01/25 09:54:59;;;;;;;15.80;7.38;;;;;;;;;;5057102;28;20092;-86
2021/01/25 09:57:44;;;;;;;11.98;6.38;;;;;;;;;;5055971;28;20057;-91
2021/01/25 10:00:30;;;;;;;11.90;6.30;;;;;;;;;;5076935;28;20032;-87
2021/01/25 10:03:15;;;;;;;13.50;8.07;;;;;;;;;;5057622;28;20017;-87
2021/01/25 10:06:01;;;;;;;13.88;6.60;;;;;;;;;;5047166;28;20028;-88
2021/01/25 10:08:47;;;;;;;18.13;8.00;;;;;;;;;;5053779;28;20036;-89
2021/01/25 10:11:33;;;;;;;14.60;7.00;;;;;;;;;;5059188;28;20090;-92
2021/01/25 10:14:18;;;;;;;13.45;7.07;;;;;;;;;;5047306;28;20155;-90
2021/01/25 10:17:04;;;;;;;13.55;7.40;;;;;;;;;;5056790;28;20589;-88
2021/01/25 10:19:49;;;;;;;12.30;5.97;;;;;;;;;;5060285;28;20546;-86
2021/01/25 10:22:35;;;;;;;17.40;7.43;;;;;;;;;;5052491;28;20505;-86
2021/01/25 10:25:20;;;;;;;15.82;7.03;;;;;;;;;;5045387;28;20024;-86
2021/01/25 10:28:05;;;;;;;11.70;6.10;;;;;;;;;;5046987;28;20036;-84
2021/01/25 10:30:50;;;;;;;16.33;7.05;;;;;;;;;;5047434;28;20037;-85
2021/01/25 10:33:36;;;;;;;11.55;6.60;;;;;;;;;;5056342;28;20106;-86
2021/01/25 10:36:23;;;;;;;13.32;6.07;;;;;;;;;;5062802;28;20021;-84
2021/01/25 10:39:08;;;;;;;14.15;7.15;;;;;;;;;;5057188;28;20036;-86
2021/01/25 10:41:54;;;;;;;14.70;7.85;;;;;;;;;;5065143;28;20059;-85
2021/01/25 10:44:39;;;;;;;12.73;6.53;;;;;;;;;;5058619;28;20021;-86
2021/01/25 10:47:24;;;;;;;10.07;6.43;;;;;;;;;;5050924;28;20435;-85
2021/01/25 10:50:11;;;;;;;12.45;6.72;;;;;;;;;;5045096;28;20079;-86
2021/01/25 10:52:56;;;;;;;20.33;8.27;;;;;;;;;;5059531;28;20033;-85
2021/01/25 10:55:41;;;;;;;11.32;6.60;;;;;;;;;;5047995;28;20032;-85
2021/01/25 10:58:26;;;;;;;15.20;6.53;;;;;;;;;;5048180;28;20058;-83
2021/01/25 11:01:12;;;;;;;13.30;5.30;;;;;;;;;;5047643;28;20036;-84
2021/01/25 11:03:57;;;;;;;40.22;24.38;;;;;;;;;;5047667;28;20577;-81
2021/01/25 11:06:42;;;;;;;12.20;6.07;;;;;;;;;;5049732;28;20029;-82
2021/01/25 11:09:27;;;;;;;9.43;4.68;;;;;;;;;;5047727;28;20013;-81
2021/01/25 11:12:13;;;;;;;6.75;3.97;;;;;;;;;;5044815;28;20083;-82
2021/01/25 11:14:58;;;;;;;7.05;3.63;;;;;;;;;;5045856;28;20133;-82
2021/01/25 11:17:43;;;;;;;12.63;4.65;;;;;;;;;;5057753;28;20471;-79
2021/01/25 11:20:28;;;;;;;7.43;3.97;;;;;;;;;;5046707;28;20513;-81
2021/01/25 11:23:14;;;;;;;7.72;3.50;;;;;;;;;;5043962;28;20394;-83
2021/01/25 11:25:59;;;;;;;6.82;3.03;;;;;;;;;;5050726;28;20021;-82
2021/01/25 11:28:48;;;;;;;9.57;3.72;;;;;;;;;;5044880;28;20017;-83
2021/01/25 11:31:49;;;;;;;5.15;2.90;;;;;;;;;;5052574;28;20036;-82
2021/01/25 11:38:22;;;;;;;4.67;2.70;;;;;;;;;;4941530;28;20031;-83
2021/01/25 11:41:08;;;;;;;5.93;2.83;;;;;;;;;;4974548;28;20093;-84
2021/01/25 11:43:53;;;;;;;4.20;2.97;;;;;;;;;;5023480;28;20041;-84
2021/01/25 11:46:38;;;;;;;8.20;2.92;;;;;;;;;;5030951;28;20548;-83
2021/01/25 11:49:23;;;;;;;8.68;2.97;;;;;;;;;;5026770;28;20025;-82
2021/01/25 11:52:09;;;;;;;5.10;2.95;;;;;;;;;;5027705;28;20044;-83
2021/01/25 11:54:55;;;;;;;3.92;2.47;;;;;;;;;;5029455;28;20106;-82
2021/01/25 11:57:40;;;;;;;5.05;3.00;;;;;;;;;;5025101;28;20375;-87
2021/01/25 12:00:28;;;;;;;5.80;2.85;;;;;;;;;;5031019;28;20029;-87
2021/01/25 12:07:12;;;;;;;3.95;2.28;;;;;;;;;;5036548;28;20024;-83
2021/01/25 12:10:00;;;;;;;5.28;2.10;;;;;;;;;;5028544;28;20029;-85
2021/01/25 12:12:48;;;;;;;3.65;1.85;;;;;;;;;;5028895;28;20021;-83
2021/01/25 12:15:36;;;;;;;3.05;1.67;;;;;;;;;;5027745;28;20037;-85
2021/01/25 12:18:22;;;;;;;2.92;1.83;;;;;;;;;;5030480;28;20388;-84
2021/01/25 12:21:07;;;;;;;3.33;2.22;;;;;;;;;;5026738;28;20037;-85
2021/01/25 12:23:53;;;;;;;4.10;2.10;;;;;;;;;;5028368;28;20068;-87
2021/01/25 12:27:05;;;;;;;6.15;2.10;;;;;;;;;;5029384;28;20116;-87
2021/01/25 12:30:06;;;;;;;2.90;2.00;;;;;;;;;;5028939;28;20037;-86
2021/01/25 12:32:54;;;;;;;2.50;1.40;;;;;;;;;;5029733;28;20048;-85
2021/01/25 12:35:39;;;;;;;3.13;1.60;;;;;;;;;;5040855;28;20041;-85
2021/01/25 12:38:25;;;;;;;3.60;1.40;;;;;;;;;;5028566;28;20032;-86
2021/01/25 12:41:10;;;;;;;2.92;1.42;;;;;;;;;;5036461;28;20052;-84
2021/01/25 12:43:56;;;;;;;2.58;1.77;;;;;;;;;;5050346;28;20147;-85
2021/01/25 12:46:42;;;;;;;4.70;2.58;;;;;;;;;;5045613;28;21616;-82
2021/01/25 12:49:30;;;;;;;4.57;2.08;;;;;;;;;;5049040;28;20017;-86
2021/01/25 12:52:16;;;;;;;2.70;1.40;;;;;;;;;;5044506;28;20044;-85
2021/01/25 12:55:08;;;;;;;2.75;1.48;;;;;;;;;;5046108;28;20048;-84
2021/01/25 12:57:54;;;;;;;3.38;1.40;;;;;;;;;;5053721;28;20723;-85
2021/01/25 13:00:39;;;;;;;2.72;1.65;;;;;;;;;;5047761;28;20020;-84
2021/01/25 13:03:24;;;;;;;2.80;1.20;;;;;;;;;;5052153;28;20024;-83
2021/01/25 13:06:09;;;;;;;1.77;1.10;;;;;;;;;;5047820;28;20025;-83
2021/01/25 13:08:54;;;;;;;1.60;0.82;;;;;;;;;;5052112;28;20033;-85
2021/01/25 13:11:40;;;;;;;1.60;0.68;;;;;;;;;;5046930;28;20053;-85
2021/01/25 13:14:25;;;;;;;1.17;0.60;;;;;;;;;;5050084;28;20035;-81
2021/01/25 13:17:10;;;;;;;0.82;0.70;;;;;;;;;;5049324;28;20025;-85
2021/01/25 13:19:55;;;;;;;1.00;0.88;;;;;;;;;;5051104;28;20418;-87
2021/01/25 13:22:41;;;;;;;3.30;0.75;;;;;;;;;;5051604;28;20020;-87
2021/01/25 13:25:26;;;;;;;1.00;0.70;;;;;;;;;;5053394;28;20016;-89
2021/01/25 13:28:11;;;;;;;2.08;0.80;;;;;;;;;;5048241;28;20025;-87
2021/01/25 13:30:57;;;;;;;1.58;0.90;;;;;;;;;;5051701;28;20033;-87
2021/01/25 13:33:42;;;;;;;2.03;0.80;;;;;;;;;;5050189;28;20086;-89
2021/01/25 13:36:31;;;;;;;1.95;1.30;;;;;;;;;;5051502;28;20037;-87
2021/01/25 13:55:56;;;;;;;12.10;3.40;;;;;;;;;;5874699;22;20294;-84
2021/01/25 13:58:41;;;;;;;1.20;0.90;;;;;;;;;;5048541;28;20033;-84
2021/01/25 14:01:26;;;;;;;1.00;0.90;;;;;;;;;;5052379;28;20037;-85
2021/01/25 14:04:13;;;;;;;2.42;1.10;;;;;;;;;;5047756;28;20383;-84
2021/01/25 14:06:58;;;;;;;2.55;1.23;;;;;;;;;;5051834;28;20045;-85
2021/01/25 14:09:43;;;;;;;5.53;0.98;;;;;;;;;;5048795;28;20157;-83
2021/01/25 14:12:29;;;;;;;4.35;1.00;;;;;;;;;;5050908;28;20441;-84
2021/01/25 14:15:15;;;;;;;2.78;1.45;;;;;;;;;;5052173;28;20035;-85
2021/01/25 14:18:00;;;;;;;1.25;0.93;;;;;;;;;;5051531;28;20023;-86
2021/01/25 14:20:45;;;;;;;2.10;1.40;;;;;;;;;;5045893;28;20078;-81
2021/01/25 14:23:31;;;;;;;2.22;1.35;;;;;;;;;;5047736;28;20009;-84
2021/01/25 14:26:16;;;;;;;2.05;1.13;;;;;;;;;;5049349;28;20028;-83
2021/01/25 14:29:02;;;;;;;2.63;1.20;;;;;;;;;;5038868;28;20025;-88
2021/01/25 14:31:51;;;;;;;3.65;1.70;;;;;;;;;;5060004;28;20025;-88
2021/01/25 14:34:36;;;;;;;1.98;1.20;;;;;;;;;;5047066;28;20355;-82
2021/01/25 14:37:21;;;;;;;2.03;1.05;;;;;;;;;;5049103;28;20033;-82
2021/01/25 14:40:13;;;;;;;1.23;1.00;;;;;;;;;;5033036;28;20491;-80
2021/01/25 14:42:58;;;;;;;1.65;1.10;;;;;;;;;;5031362;28;20101;-84
2021/01/25 14:45:43;;;;;;;1.27;1.00;;;;;;;;;;5024791;28;20028;-81
2021/01/25 14:48:29;;;;;;;2.22;1.20;;;;;;;;;;5030042;28;20060;-82
2021/01/25 14:51:14;;;;;;;2.58;1.45;;;;;;;;;;5027902;28;20029;-84
2021/01/25 14:53:59;;;;;;;2.28;1.35;;;;;;;;;;5031911;28;20024;-85
2021/01/25 14:56:44;;;;;;;1.98;1.30;;;;;;;;;;5024085;28;20045;-85
2021/01/25 14:59:29;;;;;;;8.15;4.72;;;;;;;;;;5030991;28;20033;-85
2021/01/25 15:02:15;;;;;;;3.85;2.38;;;;;;;;;;5026834;28;20056;-83
2021/01/25 15:05:00;;;;;;;2.00;1.60;;;;;;;;;;5027688;28;20331;-85
2021/01/25 15:07:45;;;;;;;3.22;2.00;;;;;;;;;;5030027;28;20641;-84
2021/01/25 15:10:30;;;;;;;4.68;2.10;;;;;;;;;;5029419;28;20111;-86
2021/01/25 15:13:16;;;;;;;2.22;1.75;;;;;;;;;;5026645;28;20052;-86
2021/01/25 15:16:01;;;;;;;4.40;2.13;;;;;;;;;;5034052;28;20060;-84
2021/01/25 15:18:46;;;;;;;3.55;1.88;;;;;;;;;;5027809;28;20064;-84
2021/01/25 15:21:32;;;;;;;3.15;1.98;;;;;;;;;;5032868;28;20029;-86
2021/01/25 15:24:17;;;;;;;3.08;1.75;;;;;;;;;;5039516;28;20025;-87
2021/01/25 15:27:03;;;;;;;4.15;1.65;;;;;;;;;;5038058;28;20081;-87
2021/01/25 15:29:48;;;;;;;2.65;1.70;;;;;;;;;;5041094;28;20028;-85
2021/01/25 15:32:35;;;;;;;2.80;1.77;;;;;;;;;;5052658;28;20025;-85
2021/01/25 15:35:24;;;;;;;3.13;2.03;;;;;;;;;;5046011;28;20036;-85
2021/01/25 15:38:09;;;;;;;3.00;2.13;;;;;;;;;;5049698;28;20013;-86
2021/01/25 15:40:56;;;;;;;2.88;1.98;;;;;;;;;;5039717;28;20024;-85
2021/01/25 15:43:42;;;;;;;4.18;2.08;;;;;;;;;;5022797;28;20029;-85
2021/01/25 15:46:27;;;;;;;3.72;2.58;;;;;;;;;;5035906;28;20071;-86
2021/01/25 15:49:13;;;;;;;4.18;2.38;;;;;;;;;;5034198;28;20139;-77
2021/01/25 15:52:03;;;;;;;5.20;2.45;;;;;;;;;;5030829;28;20496;-85
2021/01/25 15:54:55;;;;;;;3.90;2.58;;;;;;;;;;5038592;28;20039;-83
2021/01/25 15:57:40;;;;;;;3.20;2.20;;;;;;;;;;5034689;28;20048;-82
2021/01/25 16:00:25;;;;;;;4.45;2.30;;;;;;;;;;5034228;28;20022;-81
2021/01/25 16:03:10;;;;;;;2.78;2.28;;;;;;;;;;5033580;28;20087;-81
2021/01/25 16:05:56;;;;;;;4.10;1.90;;;;;;;;;;5033656;28;20036;-81
2021/01/25 16:08:41;;;;;;;4.00;2.40;;;;;;;;;;5031195;28;20028;-82
2021/01/25 16:11:28;;;;;;;4.40;2.38;;;;;;;;;;5031805;28;20017;-82
2021/01/25 16:14:15;;;;;;;7.88;4.20;;;;;;;;;;5029982;28;20029;-83
2021/01/25 16:17:00;;;;;;;4.45;2.90;;;;;;;;;;5025377;28;20123;-83
2021/01/25 16:19:45;;;;;;;4.15;2.75;;;;;;;;;;5033147;28;20040;-83
2021/01/25 16:22:31;;;;;;;3.20;2.20;;;;;;;;;;5030830;28;20029;-83
2021/01/25 16:25:18;;;;;;;4.63;2.70;;;;;;;;;;5033542;28;20021;-81
2021/01/25 16:28:03;;;;;;;4.93;2.63;;;;;;;;;;5033669;28;20048;-82
2021/01/25 16:30:48;;;;;;;4.20;2.35;;;;;;;;;;5036233;28;20055;-83
2021/01/25 16:33:37;;;;;;;5.43;3.15;;;;;;;;;;5038758;28;20025;-82
2021/01/25 16:36:22;;;;;;;7.05;3.25;;;;;;;;;;5027676;28;20036;-79
2021/01/25 16:39:07;;;;;;;5.18;3.55;;;;;;;;;;5031681;28;20036;-78
2021/01/25 16:41:54;;;;;;;5.72;2.70;;;;;;;;;;5026014;28;20028;-76
2021/01/25 16:44:39;;;;;;;6.75;3.35;;;;;;;;;;5025699;28;20112;-77
2021/01/25 16:47:27;;;;;;;5.70;3.17;;;;;;;;;;5034481;28;20033;-77
2021/01/25 16:50:13;;;;;;;5.03;3.03;;;;;;;;;;5028820;28;20083;-76
2021/01/25 16:52:59;;;;;;;3.33;2.70;;;;;;;;;;5031120;28;20060;-85
2021/01/25 16:55:44;;;;;;;5.22;3.13;;;;;;;;;;5032360;28;20025;-84
2021/01/25 16:58:31;;;;;;;5.63;2.58;;;;;;;;;;5034140;28;20039;-85
2021/01/25 17:01:16;;;;;;;4.75;3.10;;;;;;;;;;5031408;28;20112;-84